Time,TemperatureF,DewpointF,PressureIn,WindDirection,WindDirectionDegrees,WindSpeedMPH,WindSpeedGustMPH,Humidity,HourlyPrecipIn,Conditions,Clouds,dailyrainin,SoftwareType,DateUTC
2013-09-12 00:01:00,76.5,73.6,30.02,NNE,22,0.0,1.0,91,0.00,,,0.00,meteohub,2013-09-12 04:01:00,
2013-09-12 00:02:00,76.5,73.6,30.01,NNE,22,0.0,1.0,91,0.00,,,0.00,meteohub,2013-09-12 04:02:00,
2013-09-12 00:07:00,76.3,73.4,30.01,NNE,22,0.0,1.0,91,0.00,,,0.00,meteohub,2013-09-12 04:07:00,
2013-09-12 00:12:00,76.3,73.8,30.01,NNE,22,0.0,0.0,92,0.00,,,0.00,meteohub,2013-09-12 04:12:00,
2013-09-12 00:17:00,76.3,73.8,30.01,NNE,22,0.0,0.0,92,0.00,,,0.00,meteohub,2013-09-12 04:17:00,
2013-09-12 00:22:00,76.3,73.8,30.02,NNE,22,0.0,0.0,92,0.00,,,0.00,meteohub,2013-09-12 04:22:00,
2013-09-12 00:27:00,76.1,73.2,30.01,NNE,22,0.0,0.0,91,0.00,,,0.00,meteohub,2013-09-12 04:27:00,
2013-09-12 00:32:00,76.1,73.2,30.01,NNE,22,0.0,0.0,91,0.00,,,0.00,meteohub,2013-09-12 04:32:00,
2013-09-12 00:37:00,76.3,73.8,30.01,NNE,22,0.0,0.0,92,0.00,,,0.00,meteohub,2013-09-12 04:37:00,
2013-09-12 00:42:00,76.1,73.6,30.00,NNE,22,0.0,0.0,92,0.00,,,0.00,meteohub,2013-09-12 04:42:00,
2013-09-12 00:47:00,76.1,73.6,30.00,NNE,22,0.0,0.0,92,0.00,,,0.00,meteohub,2013-09-12 04:47:00,
2013-09-12 00:52:00,75.9,73.4,30.00,NNE,22,0.0,0.0,92,0.00,,,0.00,meteohub,2013-09-12 04:52:00,
2013-09-12 00:57:00,75.9,73.8,29.99,NNE,22,0.0,0.0,93,0.00,,,0.00,meteohub,2013-09-12 04:57:00,
2013-09-12 01:02:00,75.7,73.6,29.99,NNE,22,0.0,0.0,93,0.00,,,0.00,meteohub,2013-09-12 05:02:00,
2013-09-12 01:07:00,75.7,73.6,30.00,NNE,22,0.0,0.0,93,0.00,,,0.00,meteohub,2013-09-12 05:07:00,
2013-09-12 01:12:00,75.6,73.8,30.00,NNE,22,0.0,0.0,94,0.00,,,0.00,meteohub,2013-09-12 05:12:00,
2013-09-12 01:17:00,75.6,73.8,29.99,NNE,22,0.0,0.0,94,0.00,,,0.00,meteohub,2013-09-12 05:17:00,
2013-09-12 01:22:00,75.6,73.8,29.99,NNE,22,0.0,0.0,94,0.00,,,0.00,meteohub,2013-09-12 05:22:00,
2013-09-12 01:27:00,75.6,73.8,29.99,NNE,22,0.0,0.0,94,0.00,,,0.00,meteohub,2013-09-12 05:27:00,
2013-09-12 01:32:00,75.6,73.8,29.99,NNE,22,0.0,0.0,94,0.00,,,0.00,meteohub,2013-09-12 05:32:00,
2013-09-12 01:37:00,75.6,73.8,29.99,NNE,22,0.0,0.0,94,0.00,,,0.00,meteohub,2013-09-12 05:37:00,
2013-09-12 01:42:00,75.4,73.6,29.99,NNE,22,0.0,0.0,94,0.00,,,0.00,meteohub,2013-09-12 05:42:00,
2013-09-12 01:47:00,75.6,73.9,29.99,NNE,22,0.0,0.0,95,0.00,,,0.00,meteohub,2013-09-12 05:47:00,
2013-09-12 01:52:00,75.6,73.9,29.99,NNE,22,0.0,0.0,95,0.00,,,0.00,meteohub,2013-09-12 05:52:00,
2013-09-12 01:57:00,75.6,73.9,29.99,NNE,22,0.0,0.0,95,0.00,,,0.00,meteohub,2013-09-12 05:57:00,
2013-09-12 02:02:00,75.7,74.1,29.99,NNE,22,0.0,0.0,95,0.00,,,0.00,meteohub,2013-09-12 06:02:00,
2013-09-12 02:07:00,75.9,74.3,29.99,NNE,22,0.0,0.0,95,0.00,,,0.00,meteohub,2013-09-12 06:07:00,
2013-09-12 02:13:00,75.9,74.1,29.99,NNE,22,0.0,0.0,94,0.00,,,0.00,meteohub,2013-09-12 06:13:00,
2013-09-12 02:18:00,76.1,74.3,29.99,NNE,22,0.0,0.0,94,0.00,,,0.00,meteohub,2013-09-12 06:18:00,
2013-09-12 02:23:00,76.1,74.3,29.99,NNE,22,0.0,0.0,94,0.00,,,0.00,meteohub,2013-09-12 06:23:00,
2013-09-12 02:28:00,76.3,74.5,29.98,ENE,60,0.0,0.0,94,0.00,,,0.00,meteohub,2013-09-12 06:28:00,
2013-09-12 02:33:00,76.5,74.7,29.98,ESE,107,0.0,0.0,94,0.00,,,0.00,meteohub,2013-09-12 06:33:00,
2013-09-12 02:38:00,76.6,74.8,29.97,SSE,149,0.0,1.0,94,0.00,,,0.00,meteohub,2013-09-12 06:38:00,
2013-09-12 02:43:00,76.8,74.7,29.97,South,177,0.0,1.0,93,0.00,,,0.00,meteohub,2013-09-12 06:43:00,
2013-09-12 02:48:00,77.2,74.7,29.97,South,170,1.0,2.0,92,0.00,,,0.00,meteohub,2013-09-12 06:48:00,
2013-09-12 02:53:00,77.5,75.0,29.97,SSE,151,0.0,2.0,92,0.00,,,0.00,meteohub,2013-09-12 06:53:00,
2013-09-12 02:58:00,77.7,74.8,29.97,SSE,157,0.0,2.0,91,0.00,,,0.00,meteohub,2013-09-12 06:58:00,
2013-09-12 03:03:00,77.7,74.8,29.96,SSE,157,0.0,2.0,91,0.00,,,0.00,meteohub,2013-09-12 07:03:00,
2013-09-12 03:08:00,77.7,74.8,29.96,SSE,157,0.0,1.0,91,0.00,,,0.00,meteohub,2013-09-12 07:08:00,
2013-09-12 03:13:00,77.7,74.8,29.96,SSE,159,1.0,0.0,91,0.00,,,0.00,meteohub,2013-09-12 07:13:00,
2013-09-12 03:18:00,77.5,74.3,29.97,SSE,163,0.0,2.0,90,0.00,,,0.00,meteohub,2013-09-12 07:18:00,
2013-09-12 03:23:00,77.5,74.3,29.96,SSE,161,0.0,2.0,90,0.00,,,0.00,meteohub,2013-09-12 07:23:00,
2013-09-12 03:28:00,77.5,74.1,29.96,SSE,161,0.0,2.0,89,0.00,,,0.00,meteohub,2013-09-12 07:28:00,
2013-09-12 03:33:00,77.5,74.1,29.96,SSE,166,0.0,2.0,89,0.00,,,0.00,meteohub,2013-09-12 07:33:00,
2013-09-12 03:38:00,77.5,74.1,29.96,SSE,166,0.0,1.0,89,0.00,,,0.00,meteohub,2013-09-12 07:38:00,
2013-09-12 03:43:00,77.5,74.1,29.96,SSE,166,0.0,1.0,89,0.00,,,0.00,meteohub,2013-09-12 07:43:00,
2013-09-12 03:48:00,77.5,74.1,29.96,SSE,166,0.0,1.0,89,0.00,,,0.00,meteohub,2013-09-12 07:48:00,
2013-09-12 03:53:00,77.4,74.1,29.96,SSE,166,0.0,0.0,90,0.00,,,0.00,meteohub,2013-09-12 07:53:00,
2013-09-12 03:58:00,77.2,73.9,29.96,SSE,166,0.0,0.0,90,0.00,,,0.00,meteohub,2013-09-12 07:58:00,
2013-09-12 04:03:00,77.0,74.1,29.96,SSE,166,0.0,0.0,91,0.00,,,0.00,meteohub,2013-09-12 08:03:00,
2013-09-12 04:08:00,76.8,74.3,29.96,SSE,166,0.0,0.0,92,0.00,,,0.00,meteohub,2013-09-12 08:08:00,
2013-09-12 04:13:00,76.6,74.1,29.96,SSE,166,0.0,0.0,92,0.00,,,0.00,meteohub,2013-09-12 08:13:00,
2013-09-12 04:18:00,76.5,74.3,29.96,SSE,166,0.0,0.0,93,0.00,,,0.00,meteohub,2013-09-12 08:18:00,
2013-09-12 04:23:00,76.5,74.3,29.96,SSE,166,0.0,0.0,93,0.00,,,0.00,meteohub,2013-09-12 08:23:00,
2013-09-12 04:28:00,76.3,74.1,29.96,SSE,166,0.0,0.0,93,0.00,,,0.00,meteohub,2013-09-12 08:28:00,
2013-09-12 04:33:00,76.3,74.1,29.96,SSE,166,0.0,0.0,93,0.00,,,0.00,meteohub,2013-09-12 08:33:00,
2013-09-12 04:38:00,76.1,74.3,29.96,SSE,166,0.0,0.0,94,0.00,,,0.00,meteohub,2013-09-12 08:38:00,
2013-09-12 04:43:00,75.9,74.1,29.96,SSE,166,0.0,0.0,94,0.00,,,0.00,meteohub,2013-09-12 08:43:00,
2013-09-12 04:48:00,75.9,74.1,29.96,SSE,166,0.0,0.0,94,0.00,,,0.00,meteohub,2013-09-12 08:48:00,
2013-09-12 04:53:00,75.9,74.1,29.96,SSE,166,0.0,0.0,94,0.00,,,0.00,meteohub,2013-09-12 08:53:00,
2013-09-12 04:58:00,75.7,74.1,29.96,SSE,166,0.0,0.0,95,0.00,,,0.00,meteohub,2013-09-12 08:58:00,
2013-09-12 05:03:00,75.7,74.1,29.96,SSE,166,0.0,0.0,95,0.00,,,0.00,meteohub,2013-09-12 09:03:00,
2013-09-12 05:08:00,75.7,74.1,29.96,SSE,166,0.0,0.0,95,0.00,,,0.00,meteohub,2013-09-12 09:08:00,
2013-09-12 05:13:00,75.7,74.1,29.96,SSE,166,0.0,0.0,95,0.00,,,0.00,meteohub,2013-09-12 09:13:00,
2013-09-12 05:18:00,75.6,73.9,29.96,SSE,166,0.0,0.0,95,0.00,,,0.00,meteohub,2013-09-12 09:18:00,
2013-09-12 05:23:00,75.6,73.9,29.97,SSE,166,0.0,0.0,95,0.00,,,0.00,meteohub,2013-09-12 09:23:00,
2013-09-12 05:28:00,75.6,73.9,29.97,SSE,166,0.0,0.0,95,0.00,,,0.00,meteohub,2013-09-12 09:28:00,
2013-09-12 05:33:00,75.6,73.9,29.97,SSE,166,0.0,0.0,95,0.00,,,0.00,meteohub,2013-09-12 09:33:00,
2013-09-12 05:38:00,75.6,73.9,29.97,SSE,166,0.0,0.0,95,0.00,,,0.00,meteohub,2013-09-12 09:38:00,
2013-09-12 05:43:00,75.6,73.9,29.97,SSE,166,0.0,0.0,95,0.00,,,0.00,meteohub,2013-09-12 09:43:00,
2013-09-12 05:48:00,75.6,73.9,29.97,SSE,166,0.0,0.0,95,0.00,,,0.00,meteohub,2013-09-12 09:48:00,
2013-09-12 05:53:00,75.6,73.9,29.97,SSE,166,0.0,0.0,95,0.00,,,0.00,meteohub,2013-09-12 09:53:00,
2013-09-12 05:58:00,75.4,73.8,29.97,SSE,166,0.0,0.0,95,0.00,,,0.00,meteohub,2013-09-12 09:58:00,
2013-09-12 06:03:00,75.4,73.8,29.97,SSE,166,0.0,0.0,95,0.00,,,0.00,meteohub,2013-09-12 10:03:00,
2013-09-12 06:08:00,75.4,74.1,29.97,SSE,166,0.0,0.0,96,0.00,,,0.00,meteohub,2013-09-12 10:08:00,
2013-09-12 06:13:00,75.6,74.3,29.98,SSE,166,0.0,0.0,96,0.00,,,0.00,meteohub,2013-09-12 10:13:00,
2013-09-12 06:18:00,75.6,74.3,29.98,SSE,166,0.0,0.0,96,0.00,,,0.00,meteohub,2013-09-12 10:18:00,
2013-09-12 06:23:00,75.7,74.5,29.98,SSE,166,0.0,0.0,96,0.00,,,0.00,meteohub,2013-09-12 10:23:00,
2013-09-12 06:28:00,75.9,74.7,29.98,SSE,166,0.0,0.0,96,0.00,,,0.00,meteohub,2013-09-12 10:28:00,
2013-09-12 06:34:00,75.9,74.7,29.98,SSE,166,0.0,0.0,96,0.00,,,0.00,meteohub,2013-09-12 10:34:00,
2013-09-12 06:39:00,76.1,74.8,29.98,SSE,166,0.0,0.0,96,0.00,,,0.00,meteohub,2013-09-12 10:39:00,
2013-09-12 06:44:00,76.3,75.0,29.98,SSE,166,0.0,0.0,96,0.00,,,0.00,meteohub,2013-09-12 10:44:00,
2013-09-12 06:49:00,76.3,75.0,29.98,SSE,166,0.0,0.0,96,0.00,,,0.00,meteohub,2013-09-12 10:49:00,
2013-09-12 06:54:00,76.3,75.0,29.98,SSE,166,0.0,0.0,96,0.00,,,0.00,meteohub,2013-09-12 10:54:00,
2013-09-12 06:59:00,76.3,75.0,29.98,SSE,166,0.0,0.0,96,0.00,,,0.00,meteohub,2013-09-12 10:59:00,
2013-09-12 07:04:00,76.3,75.0,29.98,SSE,166,0.0,0.0,96,0.00,,,0.00,meteohub,2013-09-12 11:04:00,
2013-09-12 07:09:00,76.3,74.7,29.98,SSE,166,0.0,0.0,95,0.00,,,0.00,meteohub,2013-09-12 11:09:00,
2013-09-12 07:14:00,76.3,74.7,29.98,SSE,166,0.0,0.0,95,0.00,,,0.00,meteohub,2013-09-12 11:14:00,
2013-09-12 07:19:00,76.3,74.7,29.98,SSE,166,0.0,0.0,95,0.00,,,0.00,meteohub,2013-09-12 11:19:00,
2013-09-12 07:24:00,76.3,74.7,29.98,SSE,166,0.0,0.0,95,0.00,,,0.00,meteohub,2013-09-12 11:24:00,
2013-09-12 07:29:00,76.3,75.0,29.98,SSE,166,0.0,0.0,96,0.00,,,0.00,meteohub,2013-09-12 11:29:00,
2013-09-12 07:34:00,76.3,75.0,29.98,SSE,166,0.0,0.0,96,0.00,,,0.00,meteohub,2013-09-12 11:34:00,
2013-09-12 07:39:00,76.6,75.4,29.98,NNE,17,0.0,0.0,96,0.00,,,0.00,meteohub,2013-09-12 11:39:00,
2013-09-12 07:44:00,76.8,75.6,29.98,NE,45,0.0,2.0,96,0.00,,,0.00,meteohub,2013-09-12 11:44:00,
2013-09-12 07:49:00,77.2,75.9,29.98,NE,45,0.0,2.0,96,0.00,,,0.00,meteohub,2013-09-12 11:49:00,
2013-09-12 07:54:00,77.4,75.7,29.98,NE,45,0.0,2.0,95,0.00,,,0.00,meteohub,2013-09-12 11:54:00,
2013-09-12 07:59:00,77.5,75.9,29.98,NE,45,0.0,0.0,95,0.01,,,0.01,meteohub,2013-09-12 11:59:00,
2013-09-12 08:04:00,77.5,75.9,29.98,NE,45,0.0,0.0,95,0.02,,,0.02,meteohub,2013-09-12 12:04:00,
2013-09-12 08:09:00,77.7,76.1,29.99,NE,45,0.0,0.0,95,0.02,,,0.02,meteohub,2013-09-12 12:09:00,
2013-09-12 08:14:00,77.9,76.3,29.99,NE,45,0.0,0.0,95,0.02,,,0.02,meteohub,2013-09-12 12:14:00,
2013-09-12 08:19:00,78.1,76.5,29.99,NE,45,0.0,0.0,95,0.02,,,0.02,meteohub,2013-09-12 12:19:00,
2013-09-12 08:24:00,78.1,76.5,29.99,NE,45,0.0,0.0,95,0.02,,,0.02,meteohub,2013-09-12 12:24:00,
2013-09-12 08:29:00,78.1,76.8,29.99,NE,45,0.0,0.0,96,0.02,,,0.02,meteohub,2013-09-12 12:29:00,
2013-09-12 08:34:00,78.3,76.6,29.99,NE,45,0.0,0.0,95,0.02,,,0.02,meteohub,2013-09-12 12:34:00,
2013-09-12 08:39:00,78.3,76.6,29.99,NE,45,0.0,0.0,95,0.02,,,0.02,meteohub,2013-09-12 12:39:00,
2013-09-12 08:44:00,78.4,76.8,29.99,NE,45,0.0,0.0,95,0.02,,,0.02,meteohub,2013-09-12 12:44:00,
2013-09-12 08:49:00,78.4,76.8,30.00,SSW,200,0.0,0.0,95,0.02,,,0.02,meteohub,2013-09-12 12:49:00,
2013-09-12 08:54:00,78.6,77.0,30.00,SSW,200,0.0,1.0,95,0.02,,,0.02,meteohub,2013-09-12 12:54:00,
2013-09-12 08:59:00,79.0,77.4,30.00,SSW,200,0.0,1.0,95,0.01,,,0.02,meteohub,2013-09-12 12:59:00,
2013-09-12 09:04:00,79.2,77.5,30.00,SSW,200,0.0,1.0,95,0.00,,,0.02,meteohub,2013-09-12 13:04:00,
2013-09-12 09:09:00,79.2,77.4,30.00,SSW,200,0.0,0.0,94,0.00,,,0.02,meteohub,2013-09-12 13:09:00,
2013-09-12 09:14:00,79.2,77.4,30.00,SSW,200,0.0,0.0,94,0.00,,,0.02,meteohub,2013-09-12 13:14:00,
2013-09-12 09:19:00,79.2,77.4,30.00,SSW,200,0.0,0.0,94,0.00,,,0.02,meteohub,2013-09-12 13:19:00,
2013-09-12 09:24:00,79.2,77.0,30.00,SSW,200,0.0,0.0,93,0.00,,,0.02,meteohub,2013-09-12 13:24:00,
2013-09-12 09:29:00,79.3,76.8,30.00,ESE,115,0.0,0.0,92,0.00,,,0.02,meteohub,2013-09-12 13:29:00,
2013-09-12 09:34:00,79.3,76.8,30.00,ESE,115,0.0,1.0,92,0.00,,,0.02,meteohub,2013-09-12 13:34:00,
2013-09-12 09:39:00,79.3,76.8,30.00,ESE,115,0.0,1.0,92,0.00,,,0.02,meteohub,2013-09-12 13:39:00,
2013-09-12 09:44:00,79.5,77.0,30.00,ESE,115,0.0,1.0,92,0.00,,,0.02,meteohub,2013-09-12 13:44:00,
2013-09-12 09:49:00,79.5,76.3,30.00,East,98,0.0,1.0,90,0.00,,,0.02,meteohub,2013-09-12 13:49:00,
2013-09-12 09:54:00,79.9,76.6,30.00,SE,136,0.0,1.0,90,0.00,,,0.02,meteohub,2013-09-12 13:54:00,
2013-09-12 09:59:00,79.9,76.3,30.00,SE,136,0.0,1.0,89,0.00,,,0.02,meteohub,2013-09-12 13:59:00,
2013-09-12 10:04:00,80.1,76.5,30.00,ESE,107,0.0,1.0,89,0.00,,,0.02,meteohub,2013-09-12 14:04:00,
2013-09-12 10:09:00,80.1,75.9,30.00,SE,126,0.0,1.0,87,0.00,,,0.02,meteohub,2013-09-12 14:09:00,
2013-09-12 10:14:00,80.2,76.1,30.00,NE,45,0.0,3.0,87,0.00,,,0.02,meteohub,2013-09-12 14:14:00,
2013-09-12 10:19:00,80.4,75.9,30.00,SSE,159,0.0,3.0,86,0.00,,,0.02,meteohub,2013-09-12 14:19:00,
2013-09-12 10:24:00,80.8,76.3,30.00,SSE,159,0.0,3.0,86,0.00,,,0.02,meteohub,2013-09-12 14:24:00,
2013-09-12 10:29:00,81.0,76.5,30.00,SSE,159,0.0,2.0,86,0.00,,,0.02,meteohub,2013-09-12 14:29:00,
2013-09-12 10:34:00,81.1,76.8,30.00,ESE,117,0.0,2.0,87,0.00,,,0.02,meteohub,2013-09-12 14:34:00,
2013-09-12 10:39:00,81.3,76.6,30.00,SE,130,2.0,2.0,86,0.00,,,0.02,meteohub,2013-09-12 14:39:00,
2013-09-12 10:44:00,81.5,76.8,30.00,SSE,159,0.0,2.0,86,0.00,,,0.02,meteohub,2013-09-12 14:44:00,
2013-09-12 10:50:00,81.7,77.4,30.00,SSE,157,0.0,2.0,87,0.00,,,0.02,meteohub,2013-09-12 14:50:00,
2013-09-12 10:55:00,81.9,77.2,30.00,NE,46,0.0,2.0,86,0.00,,,0.02,meteohub,2013-09-12 14:55:00,
2013-09-12 11:00:00,81.9,77.2,30.00,ESE,119,0.0,2.0,86,0.00,,,0.02,meteohub,2013-09-12 15:00:00,
2013-09-12 11:05:00,81.9,77.2,30.00,ESE,117,0.0,2.0,86,0.00,,,0.02,meteohub,2013-09-12 15:05:00,
2013-09-12 11:10:00,81.9,77.2,30.00,ESE,117,0.0,2.0,86,0.00,,,0.02,meteohub,2013-09-12 15:10:00,
2013-09-12 11:15:00,81.9,77.2,30.00,ESE,117,0.0,1.0,86,0.00,,,0.02,meteohub,2013-09-12 15:15:00,
2013-09-12 11:20:00,81.9,77.2,30.00,ESE,117,0.0,1.0,86,0.00,,,0.02,meteohub,2013-09-12 15:20:00,
2013-09-12 11:25:00,81.9,77.2,30.00,ESE,117,0.0,1.0,86,0.00,,,0.02,meteohub,2013-09-12 15:25:00,
2013-09-12 11:30:00,81.9,77.2,30.00,SE,132,0.0,1.0,86,0.00,,,0.02,meteohub,2013-09-12 15:30:00,
2013-09-12 11:35:00,81.7,76.6,30.00,SSE,156,0.0,2.0,85,0.00,,,0.02,meteohub,2013-09-12 15:35:00,
2013-09-12 11:40:00,81.5,76.5,30.00,ESE,113,1.0,2.0,85,0.00,,,0.02,meteohub,2013-09-12 15:40:00,
2013-09-12 11:45:00,81.3,76.5,29.99,SE,145,0.0,4.0,85,0.00,,,0.02,meteohub,2013-09-12 15:45:00,
2013-09-12 11:50:00,81.3,76.5,29.99,East,88,0.0,4.0,85,0.00,,,0.02,meteohub,2013-09-12 15:50:00,
2013-09-12 11:55:00,81.3,76.6,29.99,South,169,3.0,5.0,86,0.00,,,0.02,meteohub,2013-09-12 15:55:00,
2013-09-12 12:00:00,81.5,76.8,29.99,South,170,0.0,5.0,86,0.00,,,0.02,meteohub,2013-09-12 16:00:00,
2013-09-12 12:05:00,81.7,77.4,29.99,ESE,119,0.0,5.0,87,0.00,,,0.02,meteohub,2013-09-12 16:05:00,
2013-09-12 12:10:00,81.9,77.2,29.99,SSE,153,0.0,5.0,86,0.00,,,0.02,meteohub,2013-09-12 16:10:00,
2013-09-12 12:15:00,82.0,76.6,29.99,ESE,117,0.0,5.0,84,0.00,,,0.02,meteohub,2013-09-12 16:15:00,
2013-09-12 12:20:00,82.2,76.8,29.99,SSE,161,0.0,5.0,84,0.00,,,0.02,meteohub,2013-09-12 16:20:00,
2013-09-12 12:25:00,82.6,76.8,29.99,SE,144,4.0,4.0,83,0.00,,,0.02,meteohub,2013-09-12 16:25:00,
2013-09-12 12:30:00,82.6,76.5,29.99,SSE,161,0.0,4.0,82,0.00,,,0.02,meteohub,2013-09-12 16:30:00,
2013-09-12 12:35:00,82.6,76.5,29.99,SE,125,1.0,5.0,82,0.00,,,0.02,meteohub,2013-09-12 16:35:00,
2013-09-12 12:40:00,82.4,76.6,29.99,East,84,2.0,5.0,83,0.00,,,0.02,meteohub,2013-09-12 16:40:00,
2013-09-12 12:45:00,82.2,75.4,29.99,South,190,0.0,5.0,80,0.00,,,0.02,meteohub,2013-09-12 16:45:00,
2013-09-12 12:50:00,82.4,75.9,29.98,SE,140,0.0,3.0,81,0.00,,,0.02,meteohub,2013-09-12 16:50:00,
2013-09-12 12:55:00,82.4,75.6,29.98,SE,142,0.0,3.0,80,0.00,,,0.02,meteohub,2013-09-12 16:55:00,
2013-09-12 13:00:00,82.6,76.1,29.97,SE,142,1.0,1.0,81,0.00,,,0.02,meteohub,2013-09-12 17:00:00,
2013-09-12 13:05:00,82.6,75.7,29.97,SE,143,0.0,2.0,80,0.00,,,0.02,meteohub,2013-09-12 17:05:00,
2013-09-12 13:10:00,82.8,76.3,29.97,SE,145,0.0,2.0,81,0.00,,,0.02,meteohub,2013-09-12 17:10:00,
2013-09-12 13:15:00,82.8,75.9,29.97,South,175,0.0,2.0,80,0.00,,,0.02,meteohub,2013-09-12 17:15:00,
2013-09-12 13:20:00,82.9,76.8,29.97,SE,127,0.0,3.0,82,0.00,,,0.02,meteohub,2013-09-12 17:20:00,
2013-09-12 13:25:00,83.1,76.6,29.97,ESE,121,0.0,4.0,81,0.00,,,0.02,meteohub,2013-09-12 17:25:00,
2013-09-12 13:30:00,83.3,76.8,29.97,SE,134,2.0,7.0,81,0.00,,,0.02,meteohub,2013-09-12 17:30:00,
2013-09-12 13:35:00,83.1,76.6,29.97,SSE,152,0.0,7.0,81,0.00,,,0.02,meteohub,2013-09-12 17:35:00,
2013-09-12 13:40:00,83.3,76.8,29.97,SE,125,0.0,7.0,81,0.00,,,0.02,meteohub,2013-09-12 17:40:00,
2013-09-12 13:45:00,83.5,76.3,29.96,SSE,156,0.0,4.0,79,0.00,,,0.02,meteohub,2013-09-12 17:45:00,
2013-09-12 13:50:00,83.5,76.3,29.96,SSE,147,0.0,5.0,79,0.00,,,0.02,meteohub,2013-09-12 17:50:00,
2013-09-12 13:55:00,83.5,76.6,29.96,ESE,108,4.0,5.0,80,0.00,,,0.02,meteohub,2013-09-12 17:55:00,
2013-09-12 14:00:00,83.1,76.6,29.96,SSE,161,1.0,7.0,81,0.00,,,0.02,meteohub,2013-09-12 18:00:00,
2013-09-12 14:05:00,83.3,77.2,29.96,SE,130,0.0,7.0,82,0.00,,,0.02,meteohub,2013-09-12 18:05:00,
2013-09-12 14:10:00,83.3,76.8,29.96,South,188,2.0,7.0,81,0.00,,,0.02,meteohub,2013-09-12 18:10:00,
2013-09-12 14:15:00,83.5,77.4,29.96,SSE,153,1.0,4.0,82,0.00,,,0.02,meteohub,2013-09-12 18:15:00,
2013-09-12 14:20:00,83.7,77.5,29.96,SSE,163,0.0,5.0,82,0.00,,,0.02,meteohub,2013-09-12 18:20:00,
2013-09-12 14:26:00,83.7,77.5,29.96,SE,131,0.0,5.0,82,0.00,,,0.02,meteohub,2013-09-12 18:26:00,
2013-09-12 14:31:00,83.7,77.5,29.96,South,171,2.0,5.0,82,0.00,,,0.02,meteohub,2013-09-12 18:31:00,
2013-09-12 14:36:00,83.8,77.4,29.96,SE,139,1.0,3.0,81,0.00,,,0.02,meteohub,2013-09-12 18:36:00,
2013-09-12 14:41:00,83.7,76.8,29.96,SSE,163,0.0,4.0,80,0.00,,,0.02,meteohub,2013-09-12 18:41:00,
2013-09-12 14:46:00,83.3,76.5,29.96,ESE,105,0.0,4.0,80,0.00,,,0.02,meteohub,2013-09-12 18:46:00,
2013-09-12 14:51:00,83.1,76.3,29.95,SSE,163,0.0,4.0,80,0.00,,,0.02,meteohub,2013-09-12 18:51:00,
2013-09-12 14:56:00,83.5,77.0,29.94,SSE,149,0.0,4.0,81,0.00,,,0.02,meteohub,2013-09-12 18:56:00,
2013-09-12 15:01:00,83.5,76.6,29.94,SSE,152,1.0,3.0,80,0.00,,,0.02,meteohub,2013-09-12 19:01:00,
2013-09-12 15:06:00,83.5,76.3,29.94,East,101,1.0,3.0,79,0.00,,,0.02,meteohub,2013-09-12 19:06:00,
2013-09-12 15:11:00,83.5,76.3,29.93,ESE,113,1.0,5.0,79,0.00,,,0.02,meteohub,2013-09-12 19:11:00,
2013-09-12 15:16:00,83.7,76.8,29.93,East,100,0.0,5.0,80,0.00,,,0.02,meteohub,2013-09-12 19:16:00,
2013-09-12 15:21:00,83.7,76.8,29.93,SSE,147,2.0,6.0,80,0.00,,,0.02,meteohub,2013-09-12 19:21:00,
2013-09-12 15:26:00,83.8,77.0,29.93,SSE,153,0.0,8.0,80,0.00,,,0.02,meteohub,2013-09-12 19:26:00,
2013-09-12 15:31:00,84.0,76.5,29.93,SSE,165,3.0,8.0,78,0.00,,,0.02,meteohub,2013-09-12 19:31:00,
2013-09-12 15:36:00,83.8,75.9,29.93,SSE,158,2.0,8.0,77,0.00,,,0.02,meteohub,2013-09-12 19:36:00,
2013-09-12 15:41:00,84.0,76.5,29.93,SSE,157,1.0,5.0,78,0.00,,,0.02,meteohub,2013-09-12 19:41:00,
2013-09-12 15:46:00,84.6,76.5,29.92,SE,124,0.0,7.0,77,0.00,,,0.02,meteohub,2013-09-12 19:46:00,
2013-09-12 15:51:00,84.9,77.7,29.92,NE,53,0.0,7.0,79,0.00,,,0.02,meteohub,2013-09-12 19:51:00,
2013-09-12 15:56:00,85.1,77.5,29.91,ENE,63,0.0,7.0,78,0.00,,,0.02,meteohub,2013-09-12 19:56:00,
2013-09-12 16:01:00,85.3,77.2,29.91,ESE,105,0.0,4.0,77,0.00,,,0.02,meteohub,2013-09-12 20:01:00,
2013-09-12 16:06:00,85.5,77.4,29.91,South,187,1.0,6.0,77,0.00,,,0.02,meteohub,2013-09-12 20:06:00,
2013-09-12 16:11:00,85.3,77.7,29.91,NE,49,1.0,6.0,78,0.00,,,0.02,meteohub,2013-09-12 20:11:00,
2013-09-12 16:16:00,84.9,77.4,29.91,SE,131,0.0,6.0,78,0.00,,,0.02,meteohub,2013-09-12 20:16:00,
2013-09-12 16:21:00,84.7,77.2,29.91,South,182,0.0,4.0,78,0.00,,,0.02,meteohub,2013-09-12 20:21:00,
2013-09-12 16:26:00,84.6,77.4,29.91,SSE,161,0.0,5.0,79,0.00,,,0.02,meteohub,2013-09-12 20:26:00,
2013-09-12 16:31:00,84.6,77.7,29.91,East,80,0.0,5.0,80,0.00,,,0.02,meteohub,2013-09-12 20:31:00,
2013-09-12 16:36:00,84.6,77.7,29.91,East,94,0.0,5.0,80,0.00,,,0.02,meteohub,2013-09-12 20:36:00,
2013-09-12 16:41:00,84.4,77.2,29.91,NNE,27,3.0,3.0,79,0.00,,,0.02,meteohub,2013-09-12 20:41:00,
2013-09-12 16:46:00,84.0,77.2,29.91,SSW,198,0.0,4.0,80,0.00,,,0.02,meteohub,2013-09-12 20:46:00,
2013-09-12 16:51:00,84.0,77.2,29.91,NNE,30,0.0,4.0,80,0.00,,,0.02,meteohub,2013-09-12 20:51:00,
2013-09-12 16:56:00,84.0,77.5,29.91,ESE,121,0.0,4.0,81,0.00,,,0.02,meteohub,2013-09-12 20:56:00,
2013-09-12 17:01:00,83.8,77.0,29.90,SE,129,0.0,3.0,80,0.00,,,0.02,meteohub,2013-09-12 21:01:00,
2013-09-12 17:06:00,83.8,77.4,29.90,NE,54,0.0,3.0,81,0.00,,,0.02,meteohub,2013-09-12 21:06:00,
2013-09-12 17:11:00,83.8,77.4,29.90,SSW,213,0.0,3.0,81,0.00,,,0.02,meteohub,2013-09-12 21:11:00,
2013-09-12 17:16:00,83.8,77.4,29.90,ENE,71,0.0,3.0,81,0.00,,,0.02,meteohub,2013-09-12 21:16:00,
2013-09-12 17:21:00,84.0,77.5,29.90,East,84,0.0,3.0,81,0.00,,,0.02,meteohub,2013-09-12 21:21:00,
2013-09-12 17:26:00,84.4,77.5,29.90,ESE,108,0.0,3.0,80,0.00,,,0.02,meteohub,2013-09-12 21:26:00,
2013-09-12 17:31:00,84.4,77.5,29.90,NE,48,0.0,3.0,80,0.00,,,0.02,meteohub,2013-09-12 21:31:00,
2013-09-12 17:36:00,84.4,77.5,29.90,ESE,105,0.0,2.0,80,0.00,,,0.02,meteohub,2013-09-12 21:36:00,
2013-09-12 17:41:00,84.2,77.0,29.91,ENE,71,0.0,2.0,79,0.00,,,0.02,meteohub,2013-09-12 21:41:00,
2013-09-12 17:46:00,84.0,77.5,29.91,ESE,109,1.0,2.0,81,0.00,,,0.02,meteohub,2013-09-12 21:46:00,
2013-09-12 17:51:00,83.8,77.7,29.91,ENE,63,0.0,2.0,82,0.00,,,0.02,meteohub,2013-09-12 21:51:00,
2013-09-12 17:56:00,83.7,77.5,29.91,NE,40,0.0,2.0,82,0.00,,,0.02,meteohub,2013-09-12 21:56:00,
2013-09-12 18:01:00,83.5,77.4,29.91,NE,51,0.0,2.0,82,0.00,,,0.02,meteohub,2013-09-12 22:01:00,
2013-09-12 18:06:00,83.1,77.0,29.91,NE,48,0.0,2.0,82,0.00,,,0.02,meteohub,2013-09-12 22:06:00,
2013-09-12 18:11:00,82.9,77.2,29.91,ENE,59,0.0,2.0,83,0.00,,,0.02,meteohub,2013-09-12 22:11:00,
2013-09-12 18:16:00,82.8,77.0,29.91,NE,50,0.0,2.0,83,0.00,,,0.02,meteohub,2013-09-12 22:16:00,
2013-09-12 18:21:00,82.6,76.8,29.91,NE,50,0.0,2.0,83,0.00,,,0.02,meteohub,2013-09-12 22:21:00,
2013-09-12 18:26:00,82.6,77.2,29.91,NE,50,0.0,2.0,84,0.00,,,0.02,meteohub,2013-09-12 22:26:00,
2013-09-12 18:31:00,82.4,77.0,29.90,NNE,32,0.0,2.0,84,0.00,,,0.02,meteohub,2013-09-12 22:31:00,
2013-09-12 18:36:00,82.2,76.8,29.90,NNE,32,0.0,2.0,84,0.00,,,0.02,meteohub,2013-09-12 22:36:00,
2013-09-12 18:41:00,82.0,76.6,29.90,NNE,32,0.0,2.0,84,0.00,,,0.02,meteohub,2013-09-12 22:41:00,
2013-09-12 18:46:00,82.0,76.6,29.90,NNE,32,0.0,1.0,84,0.00,,,0.02,meteohub,2013-09-12 22:46:00,
2013-09-12 18:51:00,81.9,76.5,29.89,NNE,32,0.0,1.0,84,0.00,,,0.02,meteohub,2013-09-12 22:51:00,
2013-09-12 18:56:00,81.9,76.5,29.89,NNE,32,0.0,1.0,84,0.00,,,0.02,meteohub,2013-09-12 22:56:00,
2013-09-12 19:01:00,81.7,76.3,29.89,NNE,32,0.0,1.0,84,0.00,,,0.02,meteohub,2013-09-12 23:01:00,
2013-09-12 19:06:00,81.5,76.3,29.90,NNE,29,0.0,0.0,84,0.00,,,0.02,meteohub,2013-09-12 23:06:00,
2013-09-12 19:11:00,81.3,76.5,29.90,NNE,29,0.0,1.0,85,0.00,,,0.02,meteohub,2013-09-12 23:11:00,
2013-09-12 19:16:00,81.3,76.5,29.90,SE,142,0.0,1.0,85,0.00,,,0.02,meteohub,2013-09-12 23:16:00,
2013-09-12 19:22:00,81.3,76.5,29.91,SE,142,0.0,1.0,85,0.00,,,0.02,meteohub,2013-09-12 23:22:00,
2013-09-12 19:27:00,81.1,76.3,29.91,East,92,0.0,0.0,85,0.00,,,0.02,meteohub,2013-09-12 23:27:00,
2013-09-12 19:32:00,81.1,76.5,29.91,East,92,0.0,0.0,86,0.00,,,0.02,meteohub,2013-09-12 23:32:00,
2013-09-12 19:37:00,81.1,76.5,29.91,East,92,0.0,0.0,86,0.00,,,0.02,meteohub,2013-09-12 23:37:00,
2013-09-12 19:42:00,81.0,76.5,29.90,ESE,119,0.0,0.0,86,0.00,,,0.02,meteohub,2013-09-12 23:42:00,
2013-09-12 19:47:00,81.1,76.5,29.91,ESE,119,0.0,1.0,86,0.00,,,0.02,meteohub,2013-09-12 23:47:00,
2013-09-12 19:52:00,81.0,76.5,29.91,ESE,119,0.0,1.0,86,0.00,,,0.02,meteohub,2013-09-12 23:52:00,
2013-09-12 19:57:00,81.0,76.5,29.91,SE,135,0.0,1.0,86,0.00,,,0.02,meteohub,2013-09-12 23:57:00,
2013-09-12 20:02:00,81.1,76.5,29.91,SE,146,0.0,0.0,86,0.00,,,0.02,meteohub,2013-09-13 00:02:00,
2013-09-12 20:07:00,81.1,76.5,29.91,SE,146,0.0,0.0,86,0.00,,,0.00,meteohub,2013-09-13 00:07:00,
2013-09-12 20:12:00,81.1,76.8,29.91,SE,146,0.0,0.0,87,0.00,,,0.00,meteohub,2013-09-13 00:12:00,
2013-09-12 20:17:00,81.1,76.8,29.91,SE,142,0.0,0.0,87,0.00,,,0.00,meteohub,2013-09-13 00:17:00,
2013-09-12 20:22:00,81.0,76.5,29.91,ESE,117,0.0,0.0,86,0.00,,,0.00,meteohub,2013-09-13 00:22:00,
2013-09-12 20:27:00,81.1,76.5,29.92,ESE,117,0.0,3.0,86,0.00,,,0.00,meteohub,2013-09-13 00:27:00,
2013-09-12 20:32:00,81.1,76.5,29.92,ESE,117,0.0,3.0,86,0.00,,,0.00,meteohub,2013-09-13 00:32:00,
2013-09-12 20:37:00,81.1,76.3,29.91,SSE,148,0.0,3.0,85,0.00,,,0.00,meteohub,2013-09-13 00:37:00,
2013-09-12 20:42:00,81.1,75.9,29.92,SSE,148,0.0,2.0,84,0.00,,,0.00,meteohub,2013-09-13 00:42:00,
2013-09-12 20:47:00,81.1,75.9,29.92,SSE,148,0.0,2.0,84,0.00,,,0.00,meteohub,2013-09-13 00:47:00,
2013-09-12 20:52:00,81.1,76.3,29.92,SSE,148,0.0,1.0,85,0.00,,,0.00,meteohub,2013-09-13 00:52:00,
2013-09-12 20:57:00,81.1,76.3,29.92,SSE,148,0.0,1.0,85,0.00,,,0.00,meteohub,2013-09-13 00:57:00,
2013-09-12 21:02:00,81.0,76.1,29.92,SSE,148,0.0,0.0,85,0.00,,,0.00,meteohub,2013-09-13 01:02:00,
2013-09-12 21:07:00,80.8,75.9,29.92,SSE,148,0.0,0.0,85,0.00,,,0.00,meteohub,2013-09-13 01:07:00,
2013-09-12 21:12:00,80.6,76.1,29.93,SSE,148,0.0,0.0,86,0.00,,,0.00,meteohub,2013-09-13 01:12:00,
2013-09-12 21:17:00,80.4,75.9,29.93,SSE,148,0.0,0.0,86,0.00,,,0.00,meteohub,2013-09-13 01:17:00,
2013-09-12 21:22:00,80.4,75.9,29.93,SSE,148,0.0,0.0,86,0.00,,,0.00,meteohub,2013-09-13 01:22:00,
2013-09-12 21:27:00,80.4,75.9,29.93,SSE,148,0.0,0.0,86,0.00,,,0.00,meteohub,2013-09-13 01:27:00,
2013-09-12 21:32:00,80.4,75.9,29.93,SSE,148,0.0,0.0,86,0.00,,,0.00,meteohub,2013-09-13 01:32:00,
2013-09-12 21:37:00,80.4,76.1,29.93,SSW,212,0.0,0.0,87,0.00,,,0.00,meteohub,2013-09-13 01:37:00,
2013-09-12 21:42:00,80.6,76.3,29.93,South,184,0.0,3.0,87,0.00,,,0.00,meteohub,2013-09-13 01:42:00,
2013-09-12 21:47:00,80.4,76.5,29.93,SSW,205,0.0,3.0,88,0.02,,,0.02,meteohub,2013-09-13 01:47:00,
2013-09-12 21:52:00,80.2,77.0,29.93,SSW,205,0.0,3.0,90,0.04,,,0.04,meteohub,2013-09-13 01:52:00,
2013-09-12 21:57:00,79.9,76.6,29.93,SSW,205,0.0,1.0,90,0.04,,,0.04,meteohub,2013-09-13 01:57:00,
2013-09-12 22:02:00,79.5,76.3,29.93,SSW,205,0.0,0.0,90,0.04,,,0.04,meteohub,2013-09-13 02:02:00,
2013-09-12 22:07:00,79.3,76.5,29.93,SSW,205,0.0,0.0,91,0.04,,,0.04,meteohub,2013-09-13 02:07:00,
2013-09-12 22:12:00,79.0,76.5,29.93,SSW,205,0.0,0.0,92,0.04,,,0.04,meteohub,2013-09-13 02:12:00,
2013-09-12 22:17:00,78.8,76.3,29.93,SSW,205,0.0,0.0,92,0.04,,,0.04,meteohub,2013-09-13 02:17:00,
2013-09-12 22:22:00,78.6,76.5,29.93,SW,215,0.0,0.0,93,0.05,,,0.05,meteohub,2013-09-13 02:22:00,
2013-09-12 22:27:00,78.3,76.1,29.92,SW,216,0.0,3.0,93,0.06,,,0.06,meteohub,2013-09-13 02:27:00,
2013-09-12 22:32:00,77.7,75.6,29.92,South,191,0.0,3.0,93,0.06,,,0.06,meteohub,2013-09-13 02:32:00,
2013-09-12 22:37:00,77.5,75.0,29.92,South,180,0.0,5.0,92,0.07,,,0.07,meteohub,2013-09-13 02:37:00,
2013-09-12 22:42:00,77.2,74.7,29.92,ESE,102,1.0,5.0,92,0.08,,,0.08,meteohub,2013-09-13 02:42:00,
2013-09-12 22:47:00,77.2,75.0,29.92,NE,44,0.0,5.0,93,0.05,,,0.08,meteohub,2013-09-13 02:47:00,
2013-09-12 22:52:00,77.2,75.0,29.92,NE,44,0.0,3.0,93,0.04,,,0.08,meteohub,2013-09-13 02:52:00,
2013-09-12 22:57:00,77.2,75.4,29.92,NE,44,0.0,1.0,94,0.04,,,0.08,meteohub,2013-09-13 02:57:00,
2013-09-12 23:02:00,77.2,75.4,29.91,NNW,327,1.0,2.0,94,0.07,,,0.11,meteohub,2013-09-13 03:02:00,
2013-09-12 23:07:00,76.8,75.0,29.91,NW,325,0.0,3.0,94,0.08,,,0.12,meteohub,2013-09-13 03:07:00,
2013-09-12 23:12:00,76.8,75.2,29.91,NW,325,0.0,3.0,95,0.08,,,0.12,meteohub,2013-09-13 03:12:00,
2013-09-12 23:17:00,76.8,75.2,29.91,NW,325,0.0,3.0,95,0.08,,,0.12,meteohub,2013-09-13 03:17:00,
2013-09-12 23:22:00,76.8,75.2,29.91,NNW,327,0.0,2.0,95,0.08,,,0.13,meteohub,2013-09-13 03:22:00,
2013-09-12 23:27:00,76.8,75.2,29.91,NNW,328,0.0,1.0,95,0.07,,,0.13,meteohub,2013-09-13 03:27:00,
2013-09-12 23:32:00,76.8,75.6,29.91,NNW,328,0.0,1.0,96,0.07,,,0.13,meteohub,2013-09-13 03:32:00,
2013-09-12 23:37:00,76.8,75.6,29.91,ENE,69,0.0,1.0,96,0.06,,,0.13,meteohub,2013-09-13 03:37:00,
2013-09-12 23:42:00,76.8,75.6,29.91,ENE,70,0.0,1.0,96,0.05,,,0.13,meteohub,2013-09-13 03:42:00,
2013-09-12 23:47:00,76.8,75.6,29.91,East,92,1.0,1.0,96,0.05,,,0.13,meteohub,2013-09-13 03:47:00,
2013-09-12 23:52:00,76.8,75.6,29.91,ENE,76,0.0,2.0,96,0.05,,,0.13,meteohub,2013-09-13 03:52:00,
2013-09-12 23:57:00,76.8,75.6,29.91,ENE,63,0.0,2.0,96,0.06,,,0.14,meteohub,2013-09-13 03:57:00,